sensor_id;sensor_type;location;lat;lon;timestamp;temperature;humidity
50736;DHT22;36702;50.892;20.648;2022-07-15T00:07:09;22;78
50736;DHT22;36702;50.892;20.648;2022-07-15T00:14:15;22;78
50736;DHT22;36702;50.892;20.648;2022-07-15T00:21:02;22;78
50736;DHT22;36702;50.892;20.648;2022-07-15T00:28:07;22;78
50736;DHT22;36702;50.892;20.648;2022-07-15T00:35:19;22;78
50736;DHT22;36702;50.892;20.648;2022-07-15T00:42:06;22;78
50736;DHT22;36702;50.892;20.648;2022-07-15T00:49:17;22;78
50736;DHT22;36702;50.892;20.648;2022-07-15T00:56:02;22;78
50736;DHT22;36702;50.892;20.648;2022-07-15T01:00:15;22;78
50736;DHT22;36702;50.892;20.648;2022-07-15T01:07:17;24;77
50736;DHT22;36702;50.892;20.648;2022-07-15T01:14:03;24;77
50736;DHT22;36702;50.892;20.648;2022-07-15T01:21:05;24;77
50736;DHT22;36702;50.892;20.648;2022-07-15T01:28:25;24;77
50736;DHT22;36702;50.892;20.648;2022-07-15T01:35:14;23;81
50736;DHT22;36702;50.892;20.648;2022-07-15T01:42:16;23;81
50736;DHT22;36702;50.892;20.648;2022-07-15T01:49:35;23;81
50736;DHT22;36702;50.892;20.648;2022-07-15T01:56:16;23;81
50736;DHT22;36702;50.892;20.648;2022-07-15T02:00:20;23;81
50736;DHT22;36702;50.892;20.648;2022-07-15T02:07:19;22;85
50736;DHT22;36702;50.892;20.648;2022-07-15T02:14:07;22;85
50736;DHT22;36702;50.892;20.648;2022-07-15T02:21:18;22;85
50736;DHT22;36702;50.892;20.648;2022-07-15T02:28:10;22;85
50736;DHT22;36702;50.892;20.648;2022-07-15T02:42:03;21;86
50736;DHT22;36702;50.892;20.648;2022-07-15T02:49:18;21;86
50736;DHT22;36702;50.892;20.648;2022-07-15T02:56:03;21;86
50736;DHT22;36702;50.892;20.648;2022-07-15T03:00:26;21;86
50736;DHT22;36702;50.892;20.648;2022-07-15T03:07:16;23;88
50736;DHT22;36702;50.892;20.648;2022-07-15T03:14:16;23;88
50736;DHT22;36702;50.892;20.648;2022-07-15T03:21:03;23;88
50736;DHT22;36702;50.892;20.648;2022-07-15T03:28:14;23;88
50736;DHT22;36702;50.892;20.648;2022-07-15T03:35:03;24;84
50736;DHT22;36702;50.892;20.648;2022-07-15T03:42:06;24;84
50736;DHT22;36702;50.892;20.648;2022-07-15T03:49:05;24;84
50736;DHT22;36702;50.892;20.648;2022-07-15T03:56:03;24;84
50736;DHT22;36702;50.892;20.648;2022-07-15T04:00:23;24;84
50736;DHT22;36702;50.892;20.648;2022-07-15T04:07:03;23;87
50736;DHT22;36702;50.892;20.648;2022-07-15T04:14:23;23;87
50736;DHT22;36702;50.892;20.648;2022-07-15T04:21:19;23;87
50736;DHT22;36702;50.892;20.648;2022-07-15T04:28:07;23;87
50736;DHT22;36702;50.892;20.648;2022-07-15T04:35:17;23;88
50736;DHT22;36702;50.892;20.648;2022-07-15T04:42:16;23;88
50736;DHT22;36702;50.892;20.648;2022-07-15T04:56:04;23;88
50736;DHT22;36702;50.892;20.648;2022-07-15T05:00:19;23;88
50736;DHT22;36702;50.892;20.648;2022-07-15T05:07:02;22;89
50736;DHT22;36702;50.892;20.648;2022-07-15T05:14:02;22;89
50736;DHT22;36702;50.892;20.648;2022-07-15T05:21:20;22;89
50736;DHT22;36702;50.892;20.648;2022-07-15T05:28:04;22;89
50736;DHT22;36702;50.892;20.648;2022-07-15T05:35:17;22;90
50736;DHT22;36702;50.892;20.648;2022-07-15T05:42:02;22;90
50736;DHT22;36702;50.892;20.648;2022-07-15T05:49:20;22;90
50736;DHT22;36702;50.892;20.648;2022-07-15T05:56:15;22;90
50736;DHT22;36702;50.892;20.648;2022-07-15T06:00:02;22;90
50736;DHT22;36702;50.892;20.648;2022-07-15T06:07:04;21;92
50736;DHT22;36702;50.892;20.648;2022-07-15T06:14:22;21;92
50736;DHT22;36702;50.892;20.648;2022-07-15T06:21:14;21;92
50736;DHT22;36702;50.892;20.648;2022-07-15T06:28:09;21;92
50736;DHT22;36702;50.892;20.648;2022-07-15T06:35:25;21;92
50736;DHT22;36702;50.892;20.648;2022-07-15T06:42:16;21;92
50736;DHT22;36702;50.892;20.648;2022-07-15T06:49:04;21;92
50736;DHT22;36702;50.892;20.648;2022-07-15T06:56:20;21;92
50736;DHT22;36702;50.892;20.648;2022-07-15T07:00:15;21;92
50736;DHT22;36702;50.892;20.648;2022-07-15T07:07:16;21;93
50736;DHT22;36702;50.892;20.648;2022-07-15T07:14:18;21;93
50736;DHT22;36702;50.892;20.648;2022-07-15T07:21:20;21;93
50736;DHT22;36702;50.892;20.648;2022-07-15T07:28:19;21;93
50736;DHT22;36702;50.892;20.648;2022-07-15T07:35:21;21;93
50736;DHT22;36702;50.892;20.648;2022-07-15T07:42:05;21;93
50736;DHT22;36702;50.892;20.648;2022-07-15T07:49:18;21;93
50736;DHT22;36702;50.892;20.648;2022-07-15T07:56:04;21;93
50736;DHT22;36702;50.892;20.648;2022-07-15T08:00:32;21;93
50736;DHT22;36702;50.892;20.648;2022-07-15T08:07:09;21;94
50736;DHT22;36702;50.892;20.648;2022-07-15T08:14:05;21;94
50736;DHT22;36702;50.892;20.648;2022-07-15T08:21:15;21;94
50736;DHT22;36702;50.892;20.648;2022-07-15T08:28:06;21;94
50736;DHT22;36702;50.892;20.648;2022-07-15T08:42:13;20;94
50736;DHT22;36702;50.892;20.648;2022-07-15T08:49:56;20;94
50736;DHT22;36702;50.892;20.648;2022-07-15T08:56:02;20;94
50736;DHT22;36702;50.892;20.648;2022-07-15T09:00:29;20;94
50736;DHT22;36702;50.892;20.648;2022-07-15T09:14:13;20;94
50736;DHT22;36702;50.892;20.648;2022-07-15T09:21:20;20;94
50736;DHT22;36702;50.892;20.648;2022-07-15T09:28:17;20;94
50736;DHT22;36702;50.892;20.648;2022-07-15T09:42:09;20;94
50736;DHT22;36702;50.892;20.648;2022-07-15T09:49:31;20;94
50736;DHT22;36702;50.892;20.648;2022-07-15T09:56:28;20;94
50736;DHT22;36702;50.892;20.648;2022-07-15T10:00:17;20;94
50736;DHT22;36702;50.892;20.648;2022-07-15T10:07:07;20;94
50736;DHT22;36702;50.892;20.648;2022-07-15T10:21:45;20;94
50736;DHT22;36702;50.892;20.648;2022-07-15T11:21:03;20;94
50736;DHT22;36702;50.892;20.648;2022-07-15T12:00:15;20;95
50736;DHT22;36702;50.892;20.648;2022-07-15T12:42:04;22;93
50736;DHT22;36702;50.892;20.648;2022-07-15T13:07:03;22;93
50736;DHT22;36702;50.892;20.648;2022-07-15T14:00:01;24;78
50736;DHT22;36702;50.892;20.648;2022-07-15T14:14:04;25;70
50736;DHT22;36702;50.892;20.648;2022-07-15T14:42:02;23;75
50736;DHT22;36702;50.892;20.648;2022-07-15T14:49:19;23;75
50736;DHT22;36702;50.892;20.648;2022-07-15T15:00:15;23;75
50736;DHT22;36702;50.892;20.648;2022-07-15T16:00:14;23;75
50736;DHT22;36702;50.892;20.648;2022-07-15T16:14:03;23;73
50736;DHT22;36702;50.892;20.648;2022-07-15T16:28:04;23;73
50736;DHT22;36702;50.892;20.648;2022-07-15T16:49:03;23;73
50736;DHT22;36702;50.892;20.648;2022-07-15T17:49:02;23;73
50736;DHT22;36702;50.892;20.648;2022-07-15T18:00:15;23;73
50736;DHT22;36702;50.892;20.648;2022-07-15T18:35:09;23;76
50736;DHT22;36702;50.892;20.648;2022-07-15T19:35:19;23;77
